This is the latest recevied weather packets stored in our database for station/object DM4SB-13. If no packets are shown the sender has not sent any weather packets the latest 10 day(s).
| Time | Temp. | Humidity | Pressure | Rain* | Wind** | Luminosity | Snow |
|---|---|---|---|---|---|---|---|
| 1777482018 | 21.67° C | 22% | 1021.6 hPa | - | - | - | - |
| 1777481418 | 21.67° C | 22% | 1021.6 hPa | - | - | - | - |
| 1777480818 | 22.22° C | 21% | 1021.4 hPa | - | - | - | - |
| 1777480217 | 22.78° C | 21% | 1021.5 hPa | - | - | - | - |
| 1777479617 | 23.33° C | 21% | 1021.4 hPa | - | - | - | - |
| 1777479017 | 23.89° C | 21% | 1021.2 hPa | - | - | - | - |
| 1777478418 | 24.44° C | 21% | 1021.2 hPa | - | - | - | - |
| 1777477817 | 25° C | 21% | 1021.1 hPa | - | - | - | - |
| 1777477218 | 25.56° C | 21% | 1021.2 hPa | - | - | - | - |
| 1777476618 | 26.67° C | 21% | 1021 hPa | - | - | - | - |
| 1777476017 | 27.78° C | 20% | 1021 hPa | - | - | - | - |
| 1777475418 | 30° C | 19% | 1020.9 hPa | - | - | - | - |
| 1777474817 | 32.22° C | 18% | 1021 hPa | - | - | - | - |
| 1777474218 | 38.33° C | 15% | 1020.8 hPa | - | - | - | - |
| 1777473618 | 39.44° C | 16% | 1020.8 hPa | - | - | - | - |
| 1777473018 | 40° C | 16% | 1020.7 hPa | - | - | - | - |
| 1777472417 | 39.44° C | 17% | 1020.7 hPa | - | - | - | - |
| 1777471817 | 38.89° C | 18% | 1020.7 hPa | - | - | - | - |
| 1777471217 | 37.78° C | 18% | 1020.6 hPa | - | - | - | - |
| 1777470618 | 35° C | 21% | 1020.6 hPa | - | - | - | - |
| 1777470018 | 30.56° C | 25% | 1020.6 hPa | - | - | - | - |
| 1777469418 | 20° C | 35% | 1020.6 hPa | - | - | - | - |
| 1777468818 | 17.78° C | 39% | 1020.6 hPa | - | - | - | - |
| 1777468218 | 17.22° C | 40% | 1020.6 hPa | - | - | - | - |
| 1777467618 | 16.67° C | 39% | 1020.7 hPa | - | - | - | - |
* Rain since midnight (hover to see other rain measurements)
** Current wind speed in m/s (hover to see current wind gust speed)